Roslindale, Massachusetts
Current Conditions -  °F | °C
As of 10:53 AM on Friday 19 Dec 2014 (Local Time) from KOWD Reporting Station
Overcast Overcast  
Wind Chill: 27°   Ceiling: 3300
Heat Index: 35°   Visibility: 10mi
Dew Point: 22°   Wind: 10mph
Humidity: 59%   Direction: 310°NW
Pressure: 29.95"   Gusts: NA
Location:  42.28°N, 71.13°W
Report Text: KOWD 191553Z 31009KT 10SM OVC033 02/M06 A2995 RMK AO2 SLP144 T00171056
Loading
Personal Weather Stations






























Interactive Weather Map New forecast layout! Learn more

10-Day Weather Forecast

Advertisements
Track Severe Weather on mobile